createdAt,value
2022-10-18T00:01:15.078Z,97275.56
2022-10-18T00:06:18.131Z,97285.59
2022-10-18T00:08:46.407Z,97284.50
2022-10-18T00:11:16.026Z,97283.31
2022-10-18T00:13:44.439Z,97279.13
2022-10-18T00:16:14.670Z,97280.78
2022-10-18T00:18:43.691Z,97279.00
2022-10-18T00:21:15.958Z,97273.09
2022-10-18T00:23:44.410Z,97268.63
2022-10-18T00:26:14.338Z,97270.16
2022-10-18T00:28:44.743Z,97275.16
2022-10-18T00:31:14.936Z,97273.31
2022-10-18T00:33:44.085Z,97265.69
2022-10-18T00:36:12.511Z,97273.13
2022-10-18T00:38:41.138Z,97274.13
2022-10-18T00:41:11.546Z,97265.81
2022-10-18T00:43:59.975Z,97260.28
2022-10-18T00:46:29.611Z,97268.97
2022-10-18T00:49:14.581Z,97258.63
2022-10-18T00:51:45.225Z,97269.66
2022-10-18T00:54:13.293Z,97264.81
2022-10-18T00:56:41.639Z,97267.47
2022-10-18T00:59:11.445Z,97269.31
2022-10-18T01:01:39.720Z,97264.47
2022-10-18T01:04:08.010Z,97263.00
2022-10-18T01:06:41.217Z,97261.81
2022-10-18T01:09:17.469Z,97265.31
2022-10-18T01:11:59.529Z,97265.47
2022-10-18T01:17:28.714Z,97258.50
2022-10-18T01:20:42.219Z,97253.34
2022-10-18T01:23:15.225Z,97244.66
2022-10-18T01:25:51.680Z,97244.00
2022-10-18T01:28:35.863Z,97250.16
2022-10-18T01:31:06.257Z,97260.00
2022-10-18T01:33:39.301Z,97258.16
2022-10-18T01:36:11.598Z,97260.00
2022-10-18T01:38:40.862Z,97249.31
2022-10-18T01:41:14.776Z,97261.47
2022-10-18T01:43:45.209Z,97259.81
2022-10-18T01:46:16.993Z,97263.16
2022-10-18T01:48:45.364Z,97261.50
2022-10-18T01:51:13.579Z,97273.91
2022-10-18T01:53:41.937Z,97263.66
2022-10-18T01:56:19.473Z,97263.16
2022-10-18T01:59:04.095Z,97266.16
2022-10-18T02:01:40.435Z,97271.84
2022-10-18T02:04:15.367Z,97266.66
2022-10-18T02:06:45.464Z,97273.28
2022-10-18T02:09:17.913Z,97270.34
2022-10-18T02:14:34.358Z,97263.00
2022-10-18T02:17:07.317Z,97267.75
2022-10-18T02:19:38.834Z,97265.81
2022-10-18T02:22:09.071Z,97269.47
2022-10-18T02:24:44.342Z,97276.56
2022-10-18T02:27:12.693Z,97277.56
2022-10-18T02:29:42.042Z,97271.44
2022-10-18T02:32:15.413Z,97269.66
2022-10-18T02:34:46.303Z,97265.22
2022-10-18T02:37:15.743Z,97264.59
2022-10-18T02:39:46.714Z,97263.66
2022-10-18T02:42:15.880Z,97260.53
2022-10-18T02:44:44.421Z,97262.16
2022-10-18T02:47:14.316Z,97272.72
2022-10-18T02:49:42.658Z,97267.25
2022-10-18T02:52:10.891Z,97262.38
2022-10-18T02:54:39.208Z,97267.25
2022-10-18T02:57:07.456Z,97258.47
2022-10-18T02:59:35.707Z,97259.66
2022-10-18T03:02:03.929Z,97266.56
2022-10-18T03:04:33.533Z,97264.22
2022-10-18T03:07:01.790Z,97280.13
2022-10-18T03:09:30.199Z,97284.41
2022-10-18T03:11:58.554Z,97278.66
2022-10-18T03:14:26.806Z,97269.28
2022-10-18T03:16:55.090Z,97269.31
2022-10-18T03:19:23.411Z,97271.72
2022-10-18T03:21:52.950Z,97273.00
2022-10-18T03:24:21.225Z,97265.97
2022-10-18T03:26:49.475Z,97274.72
2022-10-18T03:29:17.809Z,97270.59
2022-10-18T03:31:46.004Z,97268.59
2022-10-18T03:34:15.755Z,97276.06
2022-10-18T03:36:43.981Z,97276.94
2022-10-18T03:39:13.768Z,97279.00
2022-10-18T03:41:41.964Z,97283.28
2022-10-18T03:44:10.242Z,97288.00
2022-10-18T03:46:38.480Z,97281.44
2022-10-18T03:49:06.757Z,97279.63
2022-10-18T03:51:34.935Z,97280.03
2022-10-18T03:54:03.257Z,97278.94
2022-10-18T03:56:32.963Z,97276.28
2022-10-18T03:59:01.211Z,97276.41
2022-10-18T04:01:29.481Z,97284.41
2022-10-18T04:03:57.743Z,97283.72
2022-10-18T04:06:25.949Z,97279.09
2022-10-18T04:08:55.899Z,97291.91
2022-10-18T04:11:24.096Z,97293.28
2022-10-18T04:13:53.657Z,97287.19
2022-10-18T04:16:21.897Z,97282.91
2022-10-18T04:18:50.098Z,97278.81
2022-10-18T04:21:18.814Z,97289.59
2022-10-18T04:23:48.285Z,97284.94
2022-10-18T04:26:16.991Z,97285.44
2022-10-18T04:28:45.410Z,97296.44
2022-10-18T04:31:15.085Z,97296.00
2022-10-18T04:33:43.342Z,97306.63
2022-10-18T04:36:11.597Z,97303.38
2022-10-18T04:38:40.095Z,97292.41
2022-10-18T04:41:08.308Z,97291.25
2022-10-18T04:43:36.660Z,97292.19
2022-10-18T04:46:04.987Z,97292.41
2022-10-18T04:48:34.675Z,97289.19
2022-10-18T04:51:02.905Z,97292.38
2022-10-18T04:53:31.123Z,97294.50
2022-10-18T04:55:59.495Z,97296.63
2022-10-18T04:58:27.813Z,97290.47
2022-10-18T05:00:56.071Z,97287.06
2022-10-18T05:03:25.798Z,97282.59
2022-10-18T05:06:01.960Z,97271.31
2022-10-18T05:08:32.744Z,97277.38
2022-10-18T05:11:01.316Z,97273.53
2022-10-18T05:13:29.752Z,97271.81
2022-10-18T05:15:59.410Z,97270.28
2022-10-18T05:18:27.857Z,97269.56
2022-10-18T05:20:57.898Z,97255.69
2022-10-18T05:23:26.433Z,97261.09
2022-10-18T05:25:55.179Z,97265.22
2022-10-18T05:28:41.077Z,97283.94
2022-10-18T05:31:11.358Z,97283.78
2022-10-18T05:33:39.804Z,97284.50
2022-10-18T05:36:10.315Z,97270.59
2022-10-18T05:38:42.199Z,97270.31
2022-10-18T05:41:11.099Z,97257.41
2022-10-18T05:43:39.430Z,97263.75
2022-10-18T05:46:13.705Z,97269.59
2022-10-18T05:48:44.457Z,97256.78
2022-10-18T05:51:14.153Z,97262.41
2022-10-18T05:53:42.366Z,97272.13
2022-10-18T05:56:11.926Z,97276.97
2022-10-18T05:58:40.925Z,97283.69
2022-10-18T06:01:09.844Z,97274.66
2022-10-18T06:03:38.225Z,97287.25
2022-10-18T06:06:08.118Z,97295.00
2022-10-18T06:08:39.015Z,97292.66
2022-10-18T06:11:08.058Z,97294.31
2022-10-18T06:13:36.370Z,97294.31
2022-10-18T06:16:04.834Z,97299.81
2022-10-18T06:18:33.022Z,97297.47
2022-10-18T06:21:01.214Z,97289.88
2022-10-18T06:23:29.830Z,97281.03
2022-10-18T06:26:01.663Z,97283.81
2022-10-18T06:28:30.608Z,97286.53
2022-10-18T06:30:59.196Z,97282.78
2022-10-18T06:33:27.565Z,97282.25
2022-10-18T06:35:57.275Z,97283.63
2022-10-18T06:38:25.926Z,97284.66
2022-10-18T06:40:54.308Z,97281.97
2022-10-18T06:43:24.554Z,97287.19
2022-10-18T06:45:53.483Z,97286.28
2022-10-18T06:48:22.676Z,97296.13
2022-10-18T06:50:56.881Z,97287.44
2022-10-18T06:53:25.390Z,97294.81
2022-10-18T06:55:53.786Z,97300.31
2022-10-18T06:58:23.452Z,97294.78
2022-10-18T07:00:51.716Z,97303.66
2022-10-18T07:03:21.702Z,97311.66
2022-10-18T07:05:50.139Z,97320.25
2022-10-18T07:08:18.863Z,97312.34
2022-10-18T07:10:53.209Z,97306.63
2022-10-18T07:13:38.341Z,97307.03
2022-10-18T07:16:14.123Z,97320.59
2022-10-18T07:18:47.198Z,97335.19
2022-10-18T07:21:16.785Z,97338.28
2022-10-18T07:23:46.156Z,97330.78
2022-10-18T07:26:16.063Z,97331.41
2022-10-18T07:28:48.079Z,97336.59
2022-10-18T07:31:16.721Z,97335.94
2022-10-18T07:33:44.986Z,97334.63
2022-10-18T07:36:14.521Z,97335.38
2022-10-18T07:38:49.317Z,97336.13
2022-10-18T07:41:17.888Z,97327.25
2022-10-18T07:43:49.143Z,97325.25
2022-10-18T07:46:18.232Z,97330.13
2022-10-18T07:48:46.568Z,97341.06
2022-10-18T07:51:15.678Z,97340.94
2022-10-18T07:53:44.001Z,97326.09
2022-10-18T07:56:16.843Z,97324.91
2022-10-18T07:58:47.455Z,97326.69
2022-10-18T08:01:15.839Z,97329.72
2022-10-18T08:03:44.905Z,97326.16
2022-10-18T08:06:14.957Z,97323.44
2022-10-18T08:08:43.292Z,97326.56
2022-10-18T08:11:13.298Z,97320.28
2022-10-18T08:13:41.705Z,97313.06
2022-10-18T08:16:12.805Z,97307.53
2022-10-18T08:18:41.448Z,97310.56
2022-10-18T08:21:11.642Z,97320.47
2022-10-18T08:23:42.116Z,97324.00
2022-10-18T08:26:11.489Z,97320.75
2022-10-18T08:28:40.491Z,97324.94
2022-10-18T08:31:13.222Z,97313.03
2022-10-18T08:33:41.793Z,97336.94
2022-10-18T08:36:12.992Z,97351.06
2022-10-18T08:38:42.767Z,97345.28
2022-10-18T08:41:24.989Z,97343.09
2022-10-18T08:43:57.902Z,97332.88
2022-10-18T08:46:28.668Z,97324.47
2022-10-18T08:48:58.057Z,97312.16
2022-10-18T08:51:30.402Z,97302.72
2022-10-18T08:54:04.593Z,97303.03
2022-10-18T08:56:33.833Z,97312.75
2022-10-18T08:59:03.145Z,97315.13
2022-10-18T09:01:41.756Z,97311.88
2022-10-18T09:04:23.017Z,97312.03
2022-10-18T09:07:00.775Z,97313.81
2022-10-18T09:09:37.516Z,97305.72
2022-10-18T09:12:27.543Z,97312.50
2022-10-18T09:15:14.282Z,97311.97
2022-10-18T09:17:51.765Z,97304.91
2022-10-18T09:20:24.495Z,97304.66
2022-10-18T09:22:57.753Z,97305.31
2022-10-18T09:25:27.429Z,97309.88
2022-10-18T09:27:57.595Z,97305.03
2022-10-18T09:30:45.706Z,97318.03
2022-10-18T09:33:27.823Z,97318.75
2022-10-18T09:35:58.225Z,97317.47
2022-10-18T09:38:27.533Z,97311.63
2022-10-18T09:40:57.849Z,97310.28
2022-10-18T09:43:26.069Z,97308.09
2022-10-18T09:45:56.009Z,97299.44
2022-10-18T09:48:29.385Z,97305.69
2022-10-18T09:50:59.677Z,97308.53
2022-10-18T09:53:35.422Z,97309.19
2022-10-18T09:56:06.915Z,97303.00
2022-10-18T09:58:42.995Z,97304.41
2022-10-18T10:01:14.661Z,97303.41
2022-10-18T10:03:44.521Z,97310.56
2022-10-18T10:06:25.153Z,97299.66
2022-10-18T10:09:00.299Z,97306.53
2022-10-18T10:11:30.830Z,97311.22
2022-10-18T10:14:01.344Z,97302.59
2022-10-18T10:16:29.671Z,97296.66
2022-10-18T10:18:59.286Z,97287.22
2022-10-18T10:21:27.748Z,97286.50
2022-10-18T10:23:57.063Z,97281.75
2022-10-18T10:26:28.370Z,97280.53
2022-10-18T10:28:56.735Z,97277.88
2022-10-18T10:31:28.951Z,97276.25
2022-10-18T10:34:02.564Z,97266.13
2022-10-18T10:36:31.784Z,97263.84
2022-10-18T10:39:05.241Z,97260.91
2022-10-18T10:41:34.027Z,97266.84
2022-10-18T10:44:03.908Z,97266.69
2022-10-18T10:46:36.444Z,97269.84
2022-10-18T10:49:39.016Z,97263.97
2022-10-18T10:52:08.201Z,97270.47
2022-10-18T10:54:51.178Z,97269.63
2022-10-18T10:57:23.826Z,97269.69
2022-10-18T10:59:53.478Z,97259.41
2022-10-18T11:02:23.546Z,97252.38
2022-10-18T11:04:54.444Z,97261.28
2022-10-18T11:07:25.849Z,97250.22
2022-10-18T11:09:59.295Z,97247.94
2022-10-18T11:12:34.596Z,97237.94
2022-10-18T11:15:22.316Z,97245.41
2022-10-18T11:18:02.485Z,97241.78
2022-10-18T11:20:33.591Z,97230.44
2022-10-18T11:23:04.042Z,97230.03
2022-10-18T11:25:48.799Z,97225.69
2022-10-18T11:28:23.121Z,97233.03
2022-10-18T11:31:01.359Z,97240.53
2022-10-18T11:33:56.420Z,97232.75
2022-10-18T11:36:27.335Z,97225.91
2022-10-18T11:38:57.698Z,97225.38
2022-10-18T11:41:30.474Z,97229.75
2022-10-18T11:44:03.020Z,97227.59
2022-10-18T11:46:42.270Z,97221.94
2022-10-18T11:49:19.512Z,97218.97
2022-10-18T11:52:08.301Z,97226.69
2022-10-18T11:54:53.363Z,97222.81
2022-10-18T11:57:33.831Z,97215.72
2022-10-18T12:00:16.328Z,97218.13
2022-10-18T12:02:57.172Z,97214.94
2022-10-18T12:05:26.206Z,97214.44
2022-10-18T12:07:58.755Z,97206.31
2022-10-18T12:10:39.370Z,97204.41
2022-10-18T12:13:19.963Z,97196.69
2022-10-18T12:15:48.815Z,97195.59
2022-10-18T12:18:18.960Z,97195.44
2022-10-18T12:20:48.991Z,97192.00
2022-10-18T12:23:21.639Z,97187.75
2022-10-18T12:25:52.562Z,97189.13
2022-10-18T12:28:27.031Z,97184.44
2022-10-18T12:31:00.616Z,97177.41
2022-10-18T12:33:30.234Z,97180.97
2022-10-18T12:36:04.778Z,97175.66
2022-10-18T12:38:35.902Z,97178.41
2022-10-18T12:41:04.689Z,97177.53
2022-10-18T12:43:36.838Z,97177.13
2022-10-18T12:46:10.855Z,97176.94
2022-10-18T12:48:43.743Z,97166.78
2022-10-18T12:51:14.859Z,97163.81
2022-10-18T12:53:46.070Z,97154.78
2022-10-18T12:56:41.894Z,97159.88
2022-10-18T12:59:49.550Z,97150.84
2022-10-18T13:02:38.745Z,97154.69
2022-10-18T13:05:52.897Z,97154.75
2022-10-18T13:08:39.775Z,97148.84
2022-10-18T13:11:33.185Z,97147.53
2022-10-18T13:14:11.932Z,97154.03
2022-10-18T13:16:44.056Z,97152.44
2022-10-18T13:19:25.382Z,97145.69
2022-10-18T13:22:01.462Z,97149.66
2022-10-18T13:24:34.586Z,97150.72
2022-10-18T13:27:35.415Z,97146.81
2022-10-18T13:30:20.757Z,97148.97
2022-10-18T13:32:55.203Z,97145.53
2022-10-18T13:35:45.447Z,97139.03
2022-10-18T13:38:47.210Z,97137.53
2022-10-18T13:41:18.618Z,97140.22
2022-10-18T13:44:11.294Z,97138.81
2022-10-18T13:47:13.425Z,97145.66
2022-10-18T13:49:58.507Z,97141.72
2022-10-18T13:52:33.007Z,97143.22
2022-10-18T13:55:07.452Z,97146.03
2022-10-18T13:57:54.974Z,97151.41
2022-10-18T14:00:48.783Z,97150.66
2022-10-18T14:03:56.975Z,97147.69
2022-10-18T14:06:20.264Z,97158.03
2022-10-18T14:08:55.087Z,97155.69
2022-10-18T14:11:28.671Z,97150.72
2022-10-18T14:14:01.239Z,97150.50
2022-10-18T14:16:36.642Z,97147.59
2022-10-18T14:19:13.080Z,97147.94
2022-10-18T14:21:44.777Z,97147.53
2022-10-18T14:24:20.655Z,97154.84
2022-10-18T14:26:49.107Z,97148.38
2022-10-18T14:29:19.172Z,97143.56
2022-10-18T14:31:55.178Z,97146.94
2022-10-18T14:34:23.644Z,97153.06
2022-10-18T14:36:52.752Z,97150.41
2022-10-18T14:39:22.750Z,97150.50
2022-10-18T14:41:52.258Z,97140.81
2022-10-18T14:44:22.873Z,97147.66
2022-10-18T14:46:54.124Z,97161.91
2022-10-18T14:49:22.493Z,97162.41
2022-10-18T14:51:52.583Z,97155.78
2022-10-18T14:54:24.076Z,97161.44
2022-10-18T14:56:54.864Z,97154.63
2022-10-18T14:59:25.667Z,97153.19
2022-10-18T15:01:57.742Z,97158.84
2022-10-18T15:04:32.670Z,97152.13
2022-10-18T15:07:03.085Z,97165.09
2022-10-18T15:09:32.467Z,97168.84
2022-10-18T15:12:01.386Z,97173.22
2022-10-18T15:14:30.181Z,97168.25
2022-10-18T15:17:03.819Z,97160.50
2022-10-18T15:19:34.234Z,97165.44
2022-10-18T15:22:33.525Z,97163.78
2022-10-18T15:25:10.460Z,97166.97
2022-10-18T15:30:17.748Z,97172.63
2022-10-18T15:32:52.396Z,97172.16
2022-10-18T15:35:26.303Z,97173.66
2022-10-18T15:37:56.267Z,97166.72
2022-10-18T15:40:34.719Z,97161.50
2022-10-18T15:43:05.870Z,97167.00
2022-10-18T15:45:37.206Z,97171.75
2022-10-18T15:48:22.403Z,97177.94
2022-10-18T15:50:51.919Z,97177.78
2022-10-18T15:53:35.203Z,97173.31
2022-10-18T15:56:06.449Z,97170.25
2022-10-18T15:58:43.062Z,97172.38
2022-10-18T16:01:17.348Z,97180.41
2022-10-18T16:03:47.965Z,97192.72
2022-10-18T16:06:18.318Z,97177.94
2022-10-18T16:08:48.520Z,97168.66
2022-10-18T16:11:18.482Z,97175.59
2022-10-18T16:13:47.003Z,97176.13
2022-10-18T16:16:16.979Z,97185.97
2022-10-18T16:18:45.315Z,97185.44
2022-10-18T16:21:23.503Z,97185.75
2022-10-18T16:23:51.838Z,97187.13
2022-10-18T16:26:21.173Z,97190.69
2022-10-18T16:28:50.272Z,97188.22
2022-10-18T16:31:20.557Z,97196.88
2022-10-18T16:33:49.407Z,97197.81
2022-10-18T16:36:18.761Z,97198.72
2022-10-18T16:38:48.736Z,97204.50
2022-10-18T16:41:17.344Z,97215.84
2022-10-18T16:43:47.086Z,97207.53
2022-10-18T16:46:18.124Z,97212.50
2022-10-18T16:48:47.008Z,97210.59
2022-10-18T16:51:15.585Z,97210.16
2022-10-18T16:53:43.918Z,97220.94
2022-10-18T16:56:16.544Z,97225.56
2022-10-18T16:58:45.686Z,97227.47
2022-10-18T17:01:15.248Z,97229.50
2022-10-18T17:03:44.255Z,97239.47
2022-10-18T17:06:16.621Z,97238.41
2022-10-18T17:08:45.395Z,97245.59
2022-10-18T17:11:16.903Z,97243.72
2022-10-18T17:13:45.674Z,97250.41
2022-10-18T17:16:23.136Z,97253.47
2022-10-18T17:18:51.522Z,97249.13
2022-10-18T17:21:19.871Z,97250.56
2022-10-18T17:23:48.243Z,97253.09
2022-10-18T17:26:34.013Z,97256.72
2022-10-18T17:29:04.694Z,97251.00
2022-10-18T17:31:33.764Z,97251.97
2022-10-18T17:34:02.484Z,97252.53
2022-10-18T17:36:30.991Z,97255.41
2022-10-18T17:38:59.762Z,97262.44
2022-10-18T17:41:29.440Z,97266.53
2022-10-18T17:43:57.680Z,97271.06
2022-10-18T17:46:26.128Z,97269.28
2022-10-18T17:48:54.622Z,97270.09
2022-10-18T17:51:23.512Z,97272.84
2022-10-18T17:53:51.982Z,97276.41
2022-10-18T17:56:20.350Z,97278.03
2022-10-18T17:58:52.897Z,97279.13
2022-10-18T18:01:23.199Z,97282.09
2022-10-18T18:03:52.203Z,97280.88
2022-10-18T18:06:22.157Z,97284.56
2022-10-18T18:08:51.243Z,97286.81
2022-10-18T18:11:19.878Z,97279.94
2022-10-18T18:13:48.545Z,97288.94
2022-10-18T18:16:21.237Z,97280.75
2022-10-18T18:18:59.226Z,97286.72
2022-10-18T18:21:28.719Z,97284.47
2022-10-18T18:23:57.587Z,97281.81
2022-10-18T18:26:26.131Z,97288.25
2022-10-18T18:28:54.956Z,97275.22
2022-10-18T18:31:25.801Z,97272.13
2022-10-18T18:33:55.237Z,97275.66
2022-10-18T18:36:24.883Z,97275.00
2022-10-18T18:38:56.922Z,97278.75
2022-10-18T18:41:26.827Z,97285.19
2022-10-18T18:43:56.953Z,97289.94
2022-10-18T18:46:28.417Z,97293.06
2022-10-18T18:48:58.817Z,97297.44
2022-10-18T18:51:27.838Z,97298.88
2022-10-18T18:53:56.282Z,97308.63
2022-10-18T18:56:26.290Z,97305.94
2022-10-18T18:58:55.002Z,97304.06
2022-10-18T19:01:25.111Z,97305.66
2022-10-18T19:03:56.160Z,97304.44
2022-10-18T19:06:26.694Z,97311.06
2022-10-18T19:09:00.467Z,97305.69
2022-10-18T19:11:31.155Z,97296.78
2022-10-18T19:13:59.679Z,97302.72
2022-10-18T19:16:29.686Z,97303.78
2022-10-18T19:19:00.992Z,97297.59
2022-10-18T19:21:30.806Z,97304.19
2022-10-18T19:23:59.186Z,97301.88
2022-10-18T19:26:34.350Z,97300.03
2022-10-18T19:29:07.821Z,97300.44
2022-10-18T19:31:36.505Z,97300.03
2022-10-18T19:34:07.618Z,97299.38
2022-10-18T19:36:36.475Z,97297.72
2022-10-18T19:39:06.012Z,97297.22
2022-10-18T19:41:34.320Z,97306.09
2022-10-18T19:44:02.630Z,97299.47
2022-10-18T19:46:30.911Z,97301.16
2022-10-18T19:48:59.193Z,97305.50
2022-10-18T19:51:28.960Z,97304.06
2022-10-18T19:53:57.627Z,97301.00
2022-10-18T19:56:27.030Z,97305.63
2022-10-18T19:58:55.766Z,97300.63
2022-10-18T20:01:24.469Z,97304.97
2022-10-18T20:03:52.778Z,97300.25
2022-10-18T20:06:21.531Z,97298.59
2022-10-18T20:08:51.161Z,97295.13
2022-10-18T20:11:21.504Z,97295.31
2022-10-18T20:13:50.312Z,97292.22
2022-10-18T20:16:24.178Z,97304.44
2022-10-18T20:18:56.586Z,97301.13
2022-10-18T20:21:25.128Z,97301.34
2022-10-18T20:23:55.019Z,97303.03
2022-10-18T20:26:25.425Z,97297.81
2022-10-18T20:28:56.666Z,97304.84
2022-10-18T20:31:26.185Z,97303.41
2022-10-18T20:33:55.628Z,97315.09
2022-10-18T20:36:24.311Z,97304.34
2022-10-18T20:38:54.948Z,97310.31
2022-10-18T20:41:25.340Z,97312.25
2022-10-18T20:43:54.075Z,97313.38
2022-10-18T20:46:23.065Z,97318.59
2022-10-18T20:48:52.589Z,97318.25
2022-10-18T20:51:21.314Z,97321.50
2022-10-18T20:53:50.148Z,97316.69
2022-10-18T20:56:21.764Z,97323.28
2022-10-18T20:58:52.503Z,97321.13
2022-10-18T21:01:22.569Z,97314.63
2022-10-18T21:03:52.244Z,97322.22
2022-10-18T21:06:22.939Z,97314.03
2022-10-18T21:08:54.224Z,97314.00
2022-10-18T21:11:24.606Z,97318.56
2022-10-18T21:13:53.606Z,97316.69
2022-10-18T21:16:22.581Z,97319.94
2022-10-18T21:18:50.876Z,97326.94
2022-10-18T21:21:20.400Z,97326.34
2022-10-18T21:23:48.922Z,97322.91
2022-10-18T21:26:18.965Z,97325.19
2022-10-18T21:28:49.010Z,97318.06
2022-10-18T21:31:19.256Z,97313.00
2022-10-18T21:33:47.821Z,97317.09
2022-10-18T21:36:16.197Z,97310.53
2022-10-18T21:38:47.800Z,97310.41
2022-10-18T21:41:17.334Z,97318.00
2022-10-18T21:43:48.693Z,97314.16
2022-10-18T21:46:17.971Z,97312.19
2022-10-18T21:48:48.173Z,97307.94
2022-10-18T21:51:18.440Z,97307.88
2022-10-18T21:53:48.366Z,97297.97
2022-10-18T21:56:18.579Z,97298.38
2022-10-18T21:58:48.732Z,97286.53
2022-10-18T22:01:18.657Z,97293.34
2022-10-18T22:03:49.468Z,97301.03
2022-10-18T22:06:18.499Z,97304.25
2022-10-18T22:08:49.986Z,97285.19
2022-10-18T22:11:19.050Z,97291.94
2022-10-18T22:13:49.048Z,97282.88
2022-10-18T22:16:18.891Z,97289.72
2022-10-18T22:18:48.475Z,97284.34
2022-10-18T22:21:18.966Z,97282.03
2022-10-18T22:23:47.511Z,97276.47
2022-10-18T22:26:18.857Z,97280.84
2022-10-18T22:28:49.153Z,97277.75
2022-10-18T22:31:19.160Z,97273.00
2022-10-18T22:33:47.802Z,97276.28
2022-10-18T22:36:16.044Z,97276.50
2022-10-18T22:38:44.282Z,97270.69
2022-10-18T22:41:13.172Z,97274.97
2022-10-18T22:43:41.594Z,97277.00
2022-10-18T22:46:14.084Z,97274.09
2022-10-18T22:48:43.032Z,97277.38
2022-10-18T22:51:12.286Z,97266.13
2022-10-18T22:53:41.234Z,97263.94
2022-10-18T22:56:11.397Z,97256.56
2022-10-18T22:58:39.695Z,97260.06
2022-10-18T23:01:10.659Z,97260.50
2022-10-18T23:03:40.563Z,97261.31
2022-10-18T23:06:22.640Z,97267.97
2022-10-18T23:08:51.498Z,97267.31
2022-10-18T23:11:19.871Z,97274.00
2022-10-18T23:13:48.288Z,97251.50
2022-10-18T23:16:16.871Z,97249.25
2022-10-18T23:18:50.322Z,97258.97
2022-10-18T23:21:18.869Z,97264.41
2022-10-18T23:23:47.504Z,97264.81
2022-10-18T23:26:17.116Z,97256.22
2022-10-18T23:28:46.573Z,97258.78
2022-10-18T23:31:17.975Z,97269.94
2022-10-18T23:33:48.763Z,97261.97
2022-10-18T23:36:17.113Z,97259.25
2022-10-18T23:38:45.727Z,97258.09
2022-10-18T23:41:15.258Z,97251.25
2022-10-18T23:43:44.001Z,97258.09
2022-10-18T23:46:13.028Z,97254.84
2022-10-18T23:48:41.275Z,97253.88
2022-10-18T23:51:11.138Z,97256.78
2022-10-18T23:53:39.697Z,97255.56
2022-10-18T23:56:09.992Z,97250.34
2022-10-18T23:58:38.633Z,97252.41
